sensor_id;sensor_type;location;lat;lon;timestamp;P1;durP1;ratioP1;P2;durP2;ratioP2
71806;SDS011;59655;42.590;23.364;2022-12-18T00:00:47;13.80;;;6.15;;
71806;SDS011;59655;42.590;23.364;2022-12-18T00:03:14;10.63;;;5.85;;
71806;SDS011;59655;42.590;23.364;2022-12-18T00:05:51;12.10;;;5.90;;
71806;SDS011;59655;42.590;23.364;2022-12-18T00:08:17;10.60;;;5.45;;
71806;SDS011;59655;42.590;23.364;2022-12-18T00:10:45;10.38;;;5.95;;
71806;SDS011;59655;42.590;23.364;2022-12-18T00:13:35;9.93;;;5.03;;
71806;SDS011;59655;42.590;23.364;2022-12-18T00:16:06;10.02;;;4.70;;
71806;SDS011;59655;42.590;23.364;2022-12-18T00:18:33;10.95;;;4.88;;
71806;SDS011;59655;42.590;23.364;2022-12-18T00:21:01;9.32;;;4.90;;
71806;SDS011;59655;42.590;23.364;2022-12-18T00:23:29;9.23;;;4.70;;
71806;SDS011;59655;42.590;23.364;2022-12-18T00:25:59;8.43;;;4.93;;
71806;SDS011;59655;42.590;23.364;2022-12-18T00:28:25;8.68;;;4.80;;
71806;SDS011;59655;42.590;23.364;2022-12-18T00:31:02;11.23;;;6.13;;
71806;SDS011;59655;42.590;23.364;2022-12-18T00:33:29;9.10;;;5.20;;
71806;SDS011;59655;42.590;23.364;2022-12-18T00:36:03;12.25;;;5.22;;
71806;SDS011;59655;42.590;23.364;2022-12-18T00:38:35;9.13;;;5.30;;
71806;SDS011;59655;42.590;23.364;2022-12-18T00:41:01;11.00;;;5.47;;
71806;SDS011;59655;42.590;23.364;2022-12-18T00:43:27;9.18;;;5.43;;
71806;SDS011;59655;42.590;23.364;2022-12-18T00:45:52;9.45;;;5.38;;
71806;SDS011;59655;42.590;23.364;2022-12-18T00:48:18;11.48;;;5.82;;
71806;SDS011;59655;42.590;23.364;2022-12-18T00:50:44;9.73;;;5.25;;
71806;SDS011;59655;42.590;23.364;2022-12-18T00:53:10;10.52;;;5.60;;
71806;SDS011;59655;42.590;23.364;2022-12-18T00:55:39;11.27;;;6.20;;
71806;SDS011;59655;42.590;23.364;2022-12-18T00:58:09;9.65;;;4.90;;
71806;SDS011;59655;42.590;23.364;2022-12-18T01:00:39;11.27;;;5.35;;
71806;SDS011;59655;42.590;23.364;2022-12-18T01:03:05;9.63;;;5.88;;
71806;SDS011;59655;42.590;23.364;2022-12-18T01:05:31;10.13;;;5.65;;
71806;SDS011;59655;42.590;23.364;2022-12-18T01:07:57;10.65;;;5.88;;
71806;SDS011;59655;42.590;23.364;2022-12-18T01:10:23;8.55;;;5.68;;
71806;SDS011;59655;42.590;23.364;2022-12-18T01:12:49;8.60;;;5.03;;
71806;SDS011;59655;42.590;23.364;2022-12-18T01:15:15;11.18;;;5.55;;
71806;SDS011;59655;42.590;23.364;2022-12-18T01:17:40;10.75;;;5.45;;
71806;SDS011;59655;42.590;23.364;2022-12-18T01:20:06;10.00;;;5.60;;
71806;SDS011;59655;42.590;23.364;2022-12-18T01:22:33;10.57;;;5.53;;
71806;SDS011;59655;42.590;23.364;2022-12-18T01:24:59;8.95;;;5.47;;
71806;SDS011;59655;42.590;23.364;2022-12-18T01:27:25;9.77;;;5.93;;
71806;SDS011;59655;42.590;23.364;2022-12-18T01:29:51;8.75;;;4.97;;
71806;SDS011;59655;42.590;23.364;2022-12-18T01:32:17;8.88;;;4.88;;
71806;SDS011;59655;42.590;23.364;2022-12-18T01:34:42;8.98;;;4.97;;
71806;SDS011;59655;42.590;23.364;2022-12-18T01:37:09;10.73;;;5.35;;
71806;SDS011;59655;42.590;23.364;2022-12-18T01:39:35;8.88;;;5.43;;
71806;SDS011;59655;42.590;23.364;2022-12-18T01:42:03;9.18;;;5.30;;
71806;SDS011;59655;42.590;23.364;2022-12-18T01:47:25;9.95;;;5.28;;
71806;SDS011;59655;42.590;23.364;2022-12-18T01:50:42;10.27;;;6.20;;
71806;SDS011;59655;42.590;23.364;2022-12-18T01:55:46;10.05;;;5.60;;
71806;SDS011;59655;42.590;23.364;2022-12-18T02:00:43;11.52;;;5.82;;
71806;SDS011;59655;42.590;23.364;2022-12-18T02:03:09;10.48;;;6.00;;
71806;SDS011;59655;42.590;23.364;2022-12-18T02:08:20;12.13;;;6.38;;
71806;SDS011;59655;42.590;23.364;2022-12-18T02:16:39;9.95;;;6.10;;
71806;SDS011;59655;42.590;23.364;2022-12-18T02:28:27;15.10;;;6.72;;
71806;SDS011;59655;42.590;23.364;2022-12-18T02:30:57;12.13;;;6.75;;
71806;SDS011;59655;42.590;23.364;2022-12-18T02:33:28;16.02;;;8.18;;
71806;SDS011;59655;42.590;23.364;2022-12-18T02:35:59;16.00;;;8.60;;
71806;SDS011;59655;42.590;23.364;2022-12-18T02:38:27;14.07;;;8.57;;
71806;SDS011;59655;42.590;23.364;2022-12-18T02:40:56;13.77;;;7.90;;
71806;SDS011;59655;42.590;23.364;2022-12-18T02:43:23;14.02;;;8.00;;
71806;SDS011;59655;42.590;23.364;2022-12-18T02:45:58;15.30;;;7.28;;
71806;SDS011;59655;42.590;23.364;2022-12-18T02:48:27;15.35;;;8.20;;
71806;SDS011;59655;42.590;23.364;2022-12-18T02:53:43;17.77;;;8.20;;
71806;SDS011;59655;42.590;23.364;2022-12-18T03:01:49;16.67;;;7.95;;
71806;SDS011;59655;42.590;23.364;2022-12-18T03:04:26;14.23;;;7.10;;
71806;SDS011;59655;42.590;23.364;2022-12-18T03:06:57;13.25;;;7.78;;
71806;SDS011;59655;42.590;23.364;2022-12-18T03:09:46;13.73;;;7.30;;
71806;SDS011;59655;42.590;23.364;2022-12-18T03:12:19;12.43;;;6.43;;
71806;SDS011;59655;42.590;23.364;2022-12-18T03:15:13;13.50;;;7.22;;
71806;SDS011;59655;42.590;23.364;2022-12-18T03:17:43;12.68;;;7.18;;
71806;SDS011;59655;42.590;23.364;2022-12-18T03:20:15;12.32;;;6.93;;
71806;SDS011;59655;42.590;23.364;2022-12-18T03:22:44;11.95;;;6.80;;
71806;SDS011;59655;42.590;23.364;2022-12-18T03:25:14;12.02;;;6.85;;
71806;SDS011;59655;42.590;23.364;2022-12-18T03:30:12;13.25;;;6.82;;
71806;SDS011;59655;42.590;23.364;2022-12-18T03:32:41;13.02;;;7.35;;
71806;SDS011;59655;42.590;23.364;2022-12-18T03:35:13;10.65;;;6.03;;
71806;SDS011;59655;42.590;23.364;2022-12-18T03:37:41;10.10;;;6.28;;
71806;SDS011;59655;42.590;23.364;2022-12-18T03:40:07;12.65;;;7.10;;
71806;SDS011;59655;42.590;23.364;2022-12-18T03:42:49;11.95;;;6.13;;
71806;SDS011;59655;42.590;23.364;2022-12-18T03:45:41;10.63;;;5.80;;
71806;SDS011;59655;42.590;23.364;2022-12-18T03:48:14;10.05;;;5.45;;
71806;SDS011;59655;42.590;23.364;2022-12-18T03:51:00;10.52;;;5.80;;
71806;SDS011;59655;42.590;23.364;2022-12-18T03:53:53;9.00;;;5.13;;
71806;SDS011;59655;42.590;23.364;2022-12-18T03:56:23;9.65;;;5.22;;
71806;SDS011;59655;42.590;23.364;2022-12-18T03:58:53;9.40;;;4.75;;
71806;SDS011;59655;42.590;23.364;2022-12-18T04:01:22;10.90;;;5.07;;
71806;SDS011;59655;42.590;23.364;2022-12-18T04:03:55;7.97;;;3.80;;
71806;SDS011;59655;42.590;23.364;2022-12-18T04:06:24;8.82;;;4.35;;
71806;SDS011;59655;42.590;23.364;2022-12-18T04:08:50;7.88;;;4.03;;
71806;SDS011;59655;42.590;23.364;2022-12-18T04:11:16;9.95;;;4.57;;
71806;SDS011;59655;42.590;23.364;2022-12-18T04:13:42;8.68;;;4.93;;
71806;SDS011;59655;42.590;23.364;2022-12-18T04:16:08;9.00;;;4.50;;
71806;SDS011;59655;42.590;23.364;2022-12-18T04:18:35;8.68;;;4.78;;
71806;SDS011;59655;42.590;23.364;2022-12-18T04:21:02;8.88;;;4.45;;
71806;SDS011;59655;42.590;23.364;2022-12-18T04:23:28;8.88;;;4.80;;
71806;SDS011;59655;42.590;23.364;2022-12-18T04:25:53;8.93;;;4.80;;
71806;SDS011;59655;42.590;23.364;2022-12-18T04:28:19;7.75;;;4.28;;
71806;SDS011;59655;42.590;23.364;2022-12-18T04:30:48;9.30;;;4.47;;
71806;SDS011;59655;42.590;23.364;2022-12-18T04:33:17;7.60;;;3.55;;
71806;SDS011;59655;42.590;23.364;2022-12-18T04:35:42;8.48;;;3.80;;
71806;SDS011;59655;42.590;23.364;2022-12-18T04:38:09;6.18;;;3.22;;
71806;SDS011;59655;42.590;23.364;2022-12-18T04:40:37;7.22;;;3.60;;
71806;SDS011;59655;42.590;23.364;2022-12-18T04:43:03;8.50;;;4.40;;
71806;SDS011;59655;42.590;23.364;2022-12-18T04:45:29;12.52;;;4.60;;
71806;SDS011;59655;42.590;23.364;2022-12-18T04:47:57;7.22;;;3.78;;
71806;SDS011;59655;42.590;23.364;2022-12-18T04:50:23;8.05;;;4.05;;
71806;SDS011;59655;42.590;23.364;2022-12-18T04:52:49;6.55;;;3.55;;
71806;SDS011;59655;42.590;23.364;2022-12-18T04:55:14;7.45;;;3.55;;
71806;SDS011;59655;42.590;23.364;2022-12-18T04:57:40;9.25;;;4.63;;
71806;SDS011;59655;42.590;23.364;2022-12-18T05:00:05;9.70;;;6.05;;
71806;SDS011;59655;42.590;23.364;2022-12-18T05:05:00;9.80;;;5.05;;
71806;SDS011;59655;42.590;23.364;2022-12-18T05:07:26;11.90;;;4.75;;
71806;SDS011;59655;42.590;23.364;2022-12-18T05:09:51;8.98;;;5.13;;
71806;SDS011;59655;42.590;23.364;2022-12-18T05:12:17;10.45;;;5.15;;
71806;SDS011;59655;42.590;23.364;2022-12-18T05:14:42;8.80;;;4.38;;
71806;SDS011;59655;42.590;23.364;2022-12-18T05:17:07;8.48;;;4.55;;
71806;SDS011;59655;42.590;23.364;2022-12-18T05:19:33;8.98;;;4.40;;
71806;SDS011;59655;42.590;23.364;2022-12-18T05:21:58;10.18;;;4.93;;
71806;SDS011;59655;42.590;23.364;2022-12-18T05:24:26;8.93;;;4.28;;
71806;SDS011;59655;42.590;23.364;2022-12-18T05:26:52;10.20;;;4.75;;
71806;SDS011;59655;42.590;23.364;2022-12-18T05:29:17;10.30;;;4.88;;
71806;SDS011;59655;42.590;23.364;2022-12-18T05:31:42;9.48;;;4.50;;
71806;SDS011;59655;42.590;23.364;2022-12-18T05:34:08;10.65;;;4.30;;
71806;SDS011;59655;42.590;23.364;2022-12-18T05:36:33;9.32;;;4.47;;
71806;SDS011;59655;42.590;23.364;2022-12-18T05:38:59;8.98;;;4.13;;
71806;SDS011;59655;42.590;23.364;2022-12-18T05:41:25;11.57;;;4.55;;
71806;SDS011;59655;42.590;23.364;2022-12-18T05:43:51;9.18;;;4.50;;
71806;SDS011;59655;42.590;23.364;2022-12-18T05:46:16;8.20;;;4.18;;
71806;SDS011;59655;42.590;23.364;2022-12-18T05:48:43;9.35;;;4.47;;
71806;SDS011;59655;42.590;23.364;2022-12-18T05:51:14;10.73;;;5.38;;
71806;SDS011;59655;42.590;23.364;2022-12-18T05:53:46;10.18;;;4.70;;
71806;SDS011;59655;42.590;23.364;2022-12-18T05:56:14;8.23;;;4.35;;
71806;SDS011;59655;42.590;23.364;2022-12-18T05:58:42;7.90;;;4.50;;
71806;SDS011;59655;42.590;23.364;2022-12-18T06:01:15;11.73;;;5.00;;
71806;SDS011;59655;42.590;23.364;2022-12-18T06:03:46;9.98;;;4.60;;
71806;SDS011;59655;42.590;23.364;2022-12-18T06:06:22;9.77;;;5.07;;
71806;SDS011;59655;42.590;23.364;2022-12-18T06:08:49;13.25;;;5.20;;
71806;SDS011;59655;42.590;23.364;2022-12-18T06:11:25;10.23;;;5.07;;
71806;SDS011;59655;42.590;23.364;2022-12-18T06:13:56;12.48;;;5.70;;
71806;SDS011;59655;42.590;23.364;2022-12-18T06:16:22;9.75;;;5.25;;
71806;SDS011;59655;42.590;23.364;2022-12-18T06:18:48;9.75;;;5.15;;
71806;SDS011;59655;42.590;23.364;2022-12-18T06:21:13;9.93;;;5.85;;
71806;SDS011;59655;42.590;23.364;2022-12-18T06:23:39;10.95;;;5.80;;
71806;SDS011;59655;42.590;23.364;2022-12-18T06:26:05;11.32;;;5.40;;
71806;SDS011;59655;42.590;23.364;2022-12-18T06:28:33;10.00;;;4.88;;
71806;SDS011;59655;42.590;23.364;2022-12-18T06:30:58;10.30;;;5.65;;
71806;SDS011;59655;42.590;23.364;2022-12-18T06:33:27;10.25;;;5.88;;
71806;SDS011;59655;42.590;23.364;2022-12-18T06:35:53;9.98;;;5.22;;
71806;SDS011;59655;42.590;23.364;2022-12-18T06:38:20;9.60;;;5.15;;
71806;SDS011;59655;42.590;23.364;2022-12-18T06:40:45;11.98;;;5.10;;
71806;SDS011;59655;42.590;23.364;2022-12-18T06:43:10;10.85;;;5.85;;
71806;SDS011;59655;42.590;23.364;2022-12-18T06:45:36;12.13;;;5.50;;
71806;SDS011;59655;42.590;23.364;2022-12-18T06:48:01;9.98;;;5.50;;
71806;SDS011;59655;42.590;23.364;2022-12-18T06:50:29;9.27;;;4.95;;
71806;SDS011;59655;42.590;23.364;2022-12-18T06:52:56;13.02;;;5.70;;
71806;SDS011;59655;42.590;23.364;2022-12-18T06:55:21;10.98;;;5.93;;
71806;SDS011;59655;42.590;23.364;2022-12-18T06:57:47;10.93;;;5.68;;
71806;SDS011;59655;42.590;23.364;2022-12-18T07:00:12;10.40;;;5.43;;
71806;SDS011;59655;42.590;23.364;2022-12-18T07:02:38;12.73;;;6.18;;
71806;SDS011;59655;42.590;23.364;2022-12-18T07:05:04;10.98;;;5.88;;
71806;SDS011;59655;42.590;23.364;2022-12-18T07:07:30;11.10;;;5.40;;
71806;SDS011;59655;42.590;23.364;2022-12-18T07:09:55;11.32;;;5.60;;
71806;SDS011;59655;42.590;23.364;2022-12-18T07:12:22;12.68;;;7.10;;
71806;SDS011;59655;42.590;23.364;2022-12-18T07:14:47;12.85;;;5.70;;
71806;SDS011;59655;42.590;23.364;2022-12-18T07:17:12;10.77;;;5.90;;
71806;SDS011;59655;42.590;23.364;2022-12-18T07:19:38;11.13;;;5.55;;
71806;SDS011;59655;42.590;23.364;2022-12-18T07:22:03;9.48;;;5.25;;
71806;SDS011;59655;42.590;23.364;2022-12-18T07:24:29;9.18;;;5.13;;
71806;SDS011;59655;42.590;23.364;2022-12-18T07:26:54;9.70;;;4.85;;
71806;SDS011;59655;42.590;23.364;2022-12-18T07:29:20;9.82;;;4.65;;
71806;SDS011;59655;42.590;23.364;2022-12-18T07:31:45;10.27;;;5.80;;
71806;SDS011;59655;42.590;23.364;2022-12-18T07:34:11;14.05;;;8.63;;
71806;SDS011;59655;42.590;23.364;2022-12-18T07:36:38;16.20;;;10.77;;
71806;SDS011;59655;42.590;23.364;2022-12-18T07:39:03;15.38;;;8.52;;
71806;SDS011;59655;42.590;23.364;2022-12-18T07:41:29;12.20;;;6.70;;
71806;SDS011;59655;42.590;23.364;2022-12-18T07:43:54;13.48;;;8.02;;
71806;SDS011;59655;42.590;23.364;2022-12-18T07:46:20;14.90;;;8.35;;
71806;SDS011;59655;42.590;23.364;2022-12-18T07:48:45;14.77;;;8.52;;
71806;SDS011;59655;42.590;23.364;2022-12-18T07:51:11;11.88;;;5.95;;
71806;SDS011;59655;42.590;23.364;2022-12-18T07:53:37;9.60;;;5.47;;
71806;SDS011;59655;42.590;23.364;2022-12-18T07:56:03;11.00;;;6.00;;
71806;SDS011;59655;42.590;23.364;2022-12-18T07:58:31;17.00;;;7.10;;
71806;SDS011;59655;42.590;23.364;2022-12-18T08:01:07;14.32;;;6.78;;
71806;SDS011;59655;42.590;23.364;2022-12-18T08:03:34;13.65;;;6.88;;
71806;SDS011;59655;42.590;23.364;2022-12-18T08:06:00;12.32;;;6.30;;
71806;SDS011;59655;42.590;23.364;2022-12-18T08:08:26;12.93;;;6.28;;
71806;SDS011;59655;42.590;23.364;2022-12-18T08:10:52;15.52;;;6.93;;
71806;SDS011;59655;42.590;23.364;2022-12-18T08:13:17;14.15;;;6.40;;
71806;SDS011;59655;42.590;23.364;2022-12-18T08:15:42;13.00;;;6.13;;
71806;SDS011;59655;42.590;23.364;2022-12-18T08:18:08;10.95;;;5.32;;
71806;SDS011;59655;42.590;23.364;2022-12-18T08:20:33;11.52;;;5.55;;
71806;SDS011;59655;42.590;23.364;2022-12-18T08:22:58;11.80;;;5.72;;
71806;SDS011;59655;42.590;23.364;2022-12-18T08:25:24;10.20;;;5.22;;
71806;SDS011;59655;42.590;23.364;2022-12-18T08:27:49;11.70;;;5.95;;
71806;SDS011;59655;42.590;23.364;2022-12-18T08:30:15;10.90;;;5.97;;
71806;SDS011;59655;42.590;23.364;2022-12-18T08:32:40;15.70;;;8.18;;
71806;SDS011;59655;42.590;23.364;2022-12-18T08:35:06;15.13;;;7.85;;
71806;SDS011;59655;42.590;23.364;2022-12-18T08:37:32;12.98;;;6.60;;
71806;SDS011;59655;42.590;23.364;2022-12-18T08:39:58;14.23;;;7.97;;
71806;SDS011;59655;42.590;23.364;2022-12-18T08:42:29;18.77;;;8.45;;
71806;SDS011;59655;42.590;23.364;2022-12-18T08:45:12;18.17;;;8.40;;
71806;SDS011;59655;42.590;23.364;2022-12-18T08:47:38;16.08;;;7.78;;
71806;SDS011;59655;42.590;23.364;2022-12-18T08:50:05;13.90;;;7.25;;
71806;SDS011;59655;42.590;23.364;2022-12-18T08:52:31;15.18;;;7.40;;
71806;SDS011;59655;42.590;23.364;2022-12-18T08:54:57;15.63;;;7.72;;
71806;SDS011;59655;42.590;23.364;2022-12-18T08:57:22;12.50;;;6.55;;
71806;SDS011;59655;42.590;23.364;2022-12-18T08:59:48;12.52;;;6.85;;
71806;SDS011;59655;42.590;23.364;2022-12-18T09:02:15;12.77;;;6.95;;
71806;SDS011;59655;42.590;23.364;2022-12-18T09:04:46;14.73;;;6.82;;
71806;SDS011;59655;42.590;23.364;2022-12-18T09:07:12;14.25;;;7.38;;
71806;SDS011;59655;42.590;23.364;2022-12-18T09:09:37;18.15;;;9.40;;
71806;SDS011;59655;42.590;23.364;2022-12-18T09:12:03;16.70;;;8.70;;
71806;SDS011;59655;42.590;23.364;2022-12-18T09:14:28;15.68;;;7.55;;
71806;SDS011;59655;42.590;23.364;2022-12-18T09:16:54;15.88;;;8.30;;
71806;SDS011;59655;42.590;23.364;2022-12-18T09:19:19;15.38;;;8.35;;
71806;SDS011;59655;42.590;23.364;2022-12-18T09:21:45;17.13;;;8.38;;
71806;SDS011;59655;42.590;23.364;2022-12-18T09:24:14;17.52;;;9.02;;
71806;SDS011;59655;42.590;23.364;2022-12-18T09:26:40;23.65;;;11.40;;
71806;SDS011;59655;42.590;23.364;2022-12-18T09:29:05;25.77;;;12.88;;
71806;SDS011;59655;42.590;23.364;2022-12-18T09:31:32;21.88;;;11.65;;
71806;SDS011;59655;42.590;23.364;2022-12-18T09:33:58;18.75;;;9.77;;
71806;SDS011;59655;42.590;23.364;2022-12-18T09:36:23;22.13;;;11.10;;
71806;SDS011;59655;42.590;23.364;2022-12-18T09:38:49;22.40;;;10.80;;
71806;SDS011;59655;42.590;23.364;2022-12-18T09:41:22;21.25;;;10.88;;
71806;SDS011;59655;42.590;23.364;2022-12-18T09:43:51;19.92;;;10.10;;
71806;SDS011;59655;42.590;23.364;2022-12-18T09:46:26;24.23;;;11.55;;
71806;SDS011;59655;42.590;23.364;2022-12-18T09:48:54;26.92;;;13.38;;
71806;SDS011;59655;42.590;23.364;2022-12-18T09:51:26;25.45;;;12.20;;
71806;SDS011;59655;42.590;23.364;2022-12-18T09:54:05;26.35;;;13.70;;
71806;SDS011;59655;42.590;23.364;2022-12-18T09:56:38;26.40;;;12.60;;
71806;SDS011;59655;42.590;23.364;2022-12-18T09:59:08;27.73;;;14.88;;
71806;SDS011;59655;42.590;23.364;2022-12-18T10:02:13;28.00;;;14.65;;
71806;SDS011;59655;42.590;23.364;2022-12-18T10:04:41;32.08;;;15.27;;
71806;SDS011;59655;42.590;23.364;2022-12-18T10:07:09;27.95;;;13.55;;
71806;SDS011;59655;42.590;23.364;2022-12-18T10:15:21;27.98;;;13.63;;
71806;SDS011;59655;42.590;23.364;2022-12-18T10:17:58;25.52;;;12.45;;
71806;SDS011;59655;42.590;23.364;2022-12-18T10:26:04;23.38;;;11.57;;
71806;SDS011;59655;42.590;23.364;2022-12-18T10:28:35;22.30;;;11.40;;
71806;SDS011;59655;42.590;23.364;2022-12-18T10:31:04;20.70;;;10.70;;
71806;SDS011;59655;42.590;23.364;2022-12-18T10:33:31;20.88;;;10.60;;
71806;SDS011;59655;42.590;23.364;2022-12-18T10:35:58;23.05;;;12.13;;
71806;SDS011;59655;42.590;23.364;2022-12-18T10:38:26;19.67;;;10.35;;
71806;SDS011;59655;42.590;23.364;2022-12-18T10:43:21;21.73;;;11.43;;
71806;SDS011;59655;42.590;23.364;2022-12-18T10:46:05;26.08;;;12.27;;
71806;SDS011;59655;42.590;23.364;2022-12-18T10:51:04;24.75;;;12.48;;
71806;SDS011;59655;42.590;23.364;2022-12-18T10:53:31;25.52;;;13.02;;
71806;SDS011;59655;42.590;23.364;2022-12-18T10:55:59;24.33;;;12.32;;
71806;SDS011;59655;42.590;23.364;2022-12-18T11:01:44;29.40;;;13.52;;
71806;SDS011;59655;42.590;23.364;2022-12-18T11:06:13;30.02;;;14.00;;
71806;SDS011;59655;42.590;23.364;2022-12-18T11:08:41;24.10;;;13.05;;
71806;SDS011;59655;42.590;23.364;2022-12-18T11:11:28;28.60;;;13.20;;
71806;SDS011;59655;42.590;23.364;2022-12-18T11:14:03;25.42;;;12.30;;
71806;SDS011;59655;42.590;23.364;2022-12-18T11:16:33;29.85;;;12.65;;
71806;SDS011;59655;42.590;23.364;2022-12-18T11:21:49;27.15;;;11.57;;
71806;SDS011;59655;42.590;23.364;2022-12-18T11:24:19;24.50;;;11.63;;
71806;SDS011;59655;42.590;23.364;2022-12-18T11:27:04;24.30;;;11.48;;
71806;SDS011;59655;42.590;23.364;2022-12-18T11:29:32;22.17;;;10.55;;
71806;SDS011;59655;42.590;23.364;2022-12-18T11:40:50;18.38;;;8.30;;
71806;SDS011;59655;42.590;23.364;2022-12-18T11:43:27;16.25;;;8.27;;
71806;SDS011;59655;42.590;23.364;2022-12-18T11:45:59;16.05;;;8.32;;
71806;SDS011;59655;42.590;23.364;2022-12-18T11:48:33;16.38;;;7.80;;
71806;SDS011;59655;42.590;23.364;2022-12-18T11:51:04;14.50;;;7.78;;
71806;SDS011;59655;42.590;23.364;2022-12-18T11:53:34;16.20;;;8.27;;
71806;SDS011;59655;42.590;23.364;2022-12-18T11:56:05;17.33;;;8.70;;
71806;SDS011;59655;42.590;23.364;2022-12-18T12:09:15;17.98;;;8.15;;
71806;SDS011;59655;42.590;23.364;2022-12-18T12:14:58;14.23;;;6.97;;
71806;SDS011;59655;42.590;23.364;2022-12-18T12:17:56;15.27;;;7.20;;
71806;SDS011;59655;42.590;23.364;2022-12-18T12:20:50;16.60;;;8.32;;
71806;SDS011;59655;42.590;23.364;2022-12-18T12:24:01;13.85;;;6.70;;
71806;SDS011;59655;42.590;23.364;2022-12-18T12:35:20;18.83;;;8.88;;
71806;SDS011;59655;42.590;23.364;2022-12-18T12:40:44;18.75;;;9.10;;
71806;SDS011;59655;42.590;23.364;2022-12-18T12:45:49;20.40;;;8.68;;
71806;SDS011;59655;42.590;23.364;2022-12-18T12:51:28;20.45;;;9.95;;
71806;SDS011;59655;42.590;23.364;2022-12-18T12:53:59;22.52;;;11.20;;
71806;SDS011;59655;42.590;23.364;2022-12-18T12:56:35;19.05;;;9.93;;
71806;SDS011;59655;42.590;23.364;2022-12-18T13:07:41;21.70;;;10.38;;
71806;SDS011;59655;42.590;23.364;2022-12-18T13:15:21;20.98;;;10.43;;
71806;SDS011;59655;42.590;23.364;2022-12-18T13:17:47;22.08;;;10.75;;
71806;SDS011;59655;42.590;23.364;2022-12-18T13:20:13;19.70;;;10.43;;
71806;SDS011;59655;42.590;23.364;2022-12-18T13:22:42;22.08;;;11.38;;
71806;SDS011;59655;42.590;23.364;2022-12-18T13:38:21;21.30;;;9.85;;
71806;SDS011;59655;42.590;23.364;2022-12-18T13:43:20;24.88;;;10.75;;
71806;SDS011;59655;42.590;23.364;2022-12-18T13:45:50;22.63;;;11.98;;
71806;SDS011;59655;42.590;23.364;2022-12-18T13:48:26;23.30;;;11.60;;
71806;SDS011;59655;42.590;23.364;2022-12-18T13:51:13;22.92;;;11.07;;
71806;SDS011;59655;42.590;23.364;2022-12-18T13:53:47;24.15;;;12.23;;
71806;SDS011;59655;42.590;23.364;2022-12-18T13:56:32;23.95;;;12.07;;
71806;SDS011;59655;42.590;23.364;2022-12-18T14:02:14;36.05;;;16.60;;
71806;SDS011;59655;42.590;23.364;2022-12-18T14:04:39;32.53;;;16.02;;
71806;SDS011;59655;42.590;23.364;2022-12-18T14:07:06;30.77;;;16.90;;
71806;SDS011;59655;42.590;23.364;2022-12-18T14:09:35;41.20;;;19.92;;
71806;SDS011;59655;42.590;23.364;2022-12-18T14:12:02;36.42;;;22.50;;
71806;SDS011;59655;42.590;23.364;2022-12-18T14:14:47;35.03;;;20.52;;
71806;SDS011;59655;42.590;23.364;2022-12-18T14:17:15;28.35;;;13.02;;
71806;SDS011;59655;42.590;23.364;2022-12-18T14:19:42;27.85;;;12.80;;
71806;SDS011;59655;42.590;23.364;2022-12-18T14:22:20;24.05;;;11.75;;
71806;SDS011;59655;42.590;23.364;2022-12-18T14:27:52;30.33;;;13.73;;
71806;SDS011;59655;42.590;23.364;2022-12-18T14:30:27;25.05;;;12.75;;
71806;SDS011;59655;42.590;23.364;2022-12-18T14:33:12;28.70;;;13.35;;
71806;SDS011;59655;42.590;23.364;2022-12-18T14:35:59;28.30;;;12.63;;
71806;SDS011;59655;42.590;23.364;2022-12-18T14:43:27;27.23;;;12.25;;
71806;SDS011;59655;42.590;23.364;2022-12-18T14:45:54;27.58;;;12.60;;
71806;SDS011;59655;42.590;23.364;2022-12-18T14:48:31;27.83;;;13.93;;
71806;SDS011;59655;42.590;23.364;2022-12-18T14:51:02;27.15;;;13.02;;
71806;SDS011;59655;42.590;23.364;2022-12-18T14:53:37;29.75;;;12.95;;
71806;SDS011;59655;42.590;23.364;2022-12-18T14:56:03;27.27;;;12.85;;
71806;SDS011;59655;42.590;23.364;2022-12-18T14:58:38;28.02;;;13.60;;
71806;SDS011;59655;42.590;23.364;2022-12-18T15:01:05;31.33;;;14.98;;
71806;SDS011;59655;42.590;23.364;2022-12-18T15:03:31;28.17;;;12.93;;
71806;SDS011;59655;42.590;23.364;2022-12-18T15:05:58;28.77;;;13.57;;
71806;SDS011;59655;42.590;23.364;2022-12-18T15:08:41;30.48;;;14.00;;
71806;SDS011;59655;42.590;23.364;2022-12-18T15:13:52;25.85;;;12.85;;
71806;SDS011;59655;42.590;23.364;2022-12-18T15:16:18;28.25;;;13.55;;
71806;SDS011;59655;42.590;23.364;2022-12-18T15:18:43;29.17;;;13.73;;
71806;SDS011;59655;42.590;23.364;2022-12-18T15:21:19;27.35;;;12.93;;
71806;SDS011;59655;42.590;23.364;2022-12-18T15:23:46;25.45;;;13.60;;
71806;SDS011;59655;42.590;23.364;2022-12-18T15:26:15;27.08;;;12.98;;
71806;SDS011;59655;42.590;23.364;2022-12-18T15:28:46;27.38;;;12.02;;
71806;SDS011;59655;42.590;23.364;2022-12-18T15:33:44;22.10;;;11.02;;
71806;SDS011;59655;42.590;23.364;2022-12-18T15:36:24;25.75;;;12.38;;
71806;SDS011;59655;42.590;23.364;2022-12-18T15:38:50;26.35;;;11.38;;
71806;SDS011;59655;42.590;23.364;2022-12-18T15:41:18;25.48;;;12.13;;
71806;SDS011;59655;42.590;23.364;2022-12-18T15:43:45;26.48;;;13.50;;
71806;SDS011;59655;42.590;23.364;2022-12-18T15:46:13;29.15;;;12.70;;
71806;SDS011;59655;42.590;23.364;2022-12-18T15:48:47;24.45;;;11.50;;
71806;SDS011;59655;42.590;23.364;2022-12-18T15:53:44;25.52;;;12.15;;
71806;SDS011;59655;42.590;23.364;2022-12-18T15:56:11;26.23;;;12.90;;
71806;SDS011;59655;42.590;23.364;2022-12-18T16:01:43;24.90;;;12.43;;
71806;SDS011;59655;42.590;23.364;2022-12-18T16:04:12;25.67;;;11.48;;
71806;SDS011;59655;42.590;23.364;2022-12-18T16:06:39;26.85;;;11.32;;
71806;SDS011;59655;42.590;23.364;2022-12-18T16:09:06;24.45;;;12.38;;
71806;SDS011;59655;42.590;23.364;2022-12-18T16:11:32;25.65;;;13.23;;
71806;SDS011;59655;42.590;23.364;2022-12-18T16:19:37;25.40;;;11.57;;
71806;SDS011;59655;42.590;23.364;2022-12-18T16:22:02;27.30;;;12.35;;
71806;SDS011;59655;42.590;23.364;2022-12-18T16:24:29;27.40;;;12.27;;
71806;SDS011;59655;42.590;23.364;2022-12-18T16:26:56;28.10;;;13.27;;
71806;SDS011;59655;42.590;23.364;2022-12-18T16:29:24;28.27;;;14.27;;
71806;SDS011;59655;42.590;23.364;2022-12-18T16:31:52;33.72;;;15.48;;
71806;SDS011;59655;42.590;23.364;2022-12-18T16:34:22;37.20;;;17.38;;
71806;SDS011;59655;42.590;23.364;2022-12-18T16:36:59;47.97;;;20.80;;
71806;SDS011;59655;42.590;23.364;2022-12-18T16:39:29;40.85;;;18.38;;
71806;SDS011;59655;42.590;23.364;2022-12-18T16:41:55;30.83;;;14.85;;
71806;SDS011;59655;42.590;23.364;2022-12-18T16:44:21;31.35;;;14.60;;
71806;SDS011;59655;42.590;23.364;2022-12-18T16:46:47;26.15;;;12.20;;
71806;SDS011;59655;42.590;23.364;2022-12-18T16:49:13;27.95;;;12.48;;
71806;SDS011;59655;42.590;23.364;2022-12-18T16:51:40;25.92;;;11.63;;
71806;SDS011;59655;42.590;23.364;2022-12-18T16:54:06;26.77;;;12.40;;
71806;SDS011;59655;42.590;23.364;2022-12-18T16:56:31;22.10;;;10.18;;
71806;SDS011;59655;42.590;23.364;2022-12-18T16:58:58;23.58;;;10.82;;
71806;SDS011;59655;42.590;23.364;2022-12-18T17:01:25;21.20;;;10.20;;
71806;SDS011;59655;42.590;23.364;2022-12-18T17:03:54;23.60;;;10.88;;
71806;SDS011;59655;42.590;23.364;2022-12-18T17:06:21;24.25;;;10.95;;
71806;SDS011;59655;42.590;23.364;2022-12-18T17:08:48;27.83;;;14.30;;
71806;SDS011;59655;42.590;23.364;2022-12-18T17:11:18;22.27;;;10.02;;
71806;SDS011;59655;42.590;23.364;2022-12-18T17:13:44;27.52;;;11.88;;